createdAt,value
2019-05-19T00:00:40.357Z,94218
2019-05-19T00:01:49.919Z,94217
2019-05-19T00:02:59.460Z,94214
2019-05-19T00:04:08.966Z,94212
2019-05-19T00:05:18.508Z,94212
2019-05-19T00:06:28.061Z,94214
2019-05-19T00:07:37.630Z,94212
2019-05-19T00:08:47.167Z,94213
2019-05-19T00:09:56.711Z,94213
2019-05-19T00:11:06.386Z,94211
2019-05-19T00:12:15.884Z,94212
2019-05-19T00:13:25.494Z,94208
2019-05-19T00:14:35.078Z,94209
2019-05-19T00:15:44.610Z,94206
2019-05-19T00:16:54.156Z,94207
2019-05-19T00:18:03.676Z,94212
2019-05-19T00:19:25.705Z,94206
2019-05-19T00:20:23.723Z,94208
2019-05-19T00:21:33.250Z,94204
2019-05-19T00:22:42.829Z,94203
2019-05-19T00:23:52.397Z,94203
2019-05-19T00:25:02.909Z,94201
2019-05-19T00:26:12.418Z,94209
2019-05-19T00:27:21.983Z,94211
2019-05-19T00:28:31.513Z,94210
2019-05-19T00:29:41.032Z,94207
2019-05-19T00:30:50.569Z,94214
2019-05-19T00:32:00.680Z,94215
2019-05-19T00:33:10.198Z,94209
2019-05-19T00:34:19.703Z,94206
2019-05-19T00:35:29.251Z,94208
2019-05-19T00:36:38.751Z,94205
2019-05-19T00:37:48.332Z,94204
2019-05-19T00:38:57.849Z,94194
2019-05-19T00:40:07.389Z,94193
2019-05-19T00:41:16.899Z,94190
2019-05-19T00:42:26.453Z,94189
2019-05-19T00:43:36.004Z,94195
2019-05-19T00:44:45.524Z,94197
2019-05-19T00:45:55.039Z,94203
2019-05-19T00:47:04.599Z,94199
2019-05-19T00:48:14.210Z,94198
2019-05-19T00:49:24.652Z,94201
2019-05-19T00:50:35.136Z,94202
2019-05-19T00:51:44.656Z,94204
2019-05-19T00:52:54.218Z,94207
2019-05-19T00:54:03.744Z,94208
2019-05-19T00:55:13.267Z,94206
2019-05-19T00:56:22.791Z,94204
2019-05-19T00:57:32.350Z,94208
2019-05-19T00:58:41.870Z,94210
2019-05-19T00:59:52.381Z,94211
2019-05-19T01:01:01.889Z,94215
2019-05-19T01:02:11.438Z,94216
2019-05-19T01:03:20.952Z,94222
2019-05-19T01:04:30.462Z,94222
2019-05-19T01:05:40.004Z,94222
2019-05-19T01:06:49.525Z,94218
2019-05-19T01:07:59.054Z,94218
2019-05-19T01:09:08.578Z,94219
2019-05-19T01:10:18.081Z,94214
2019-05-19T01:11:27.588Z,94211
2019-05-19T01:12:37.141Z,94208
2019-05-19T01:13:46.669Z,94204
2019-05-19T01:14:56.188Z,94203
2019-05-19T01:16:05.746Z,94203
2019-05-19T01:17:15.253Z,94204
2019-05-19T01:18:24.782Z,94206
2019-05-19T01:19:35.294Z,94208
2019-05-19T01:20:45.821Z,94207
2019-05-19T01:21:55.341Z,94208
2019-05-19T01:23:04.901Z,94209
2019-05-19T01:24:14.436Z,94208
2019-05-19T01:25:23.938Z,94213
2019-05-19T01:26:33.479Z,94214
2019-05-19T01:27:43.030Z,94209
2019-05-19T01:28:52.559Z,94214
2019-05-19T01:30:02.067Z,94211
2019-05-19T01:31:11.621Z,94215
2019-05-19T01:32:21.167Z,94218
2019-05-19T01:33:30.786Z,94217
2019-05-19T01:34:40.226Z,94216
2019-05-19T01:35:49.770Z,94216
2019-05-19T01:36:59.291Z,94213
2019-05-19T01:38:08.845Z,94217
2019-05-19T01:39:18.382Z,94214
2019-05-19T01:40:27.927Z,94219
2019-05-19T01:41:37.458Z,94218
2019-05-19T01:42:47.003Z,94220
2019-05-19T01:43:56.558Z,94219
2019-05-19T01:45:06.101Z,94217
2019-05-19T01:46:15.618Z,94214
2019-05-19T01:47:25.200Z,94219
2019-05-19T01:48:34.733Z,94219
2019-05-19T01:49:44.242Z,94222
2019-05-19T01:50:53.793Z,94219
2019-05-19T01:52:03.307Z,94217
2019-05-19T01:53:12.853Z,94216
2019-05-19T01:54:22.396Z,94219
2019-05-19T01:55:31.908Z,94217
2019-05-19T01:56:41.439Z,94217
2019-05-19T01:57:50.991Z,94216
2019-05-19T01:59:00.529Z,94212
2019-05-19T02:00:10.047Z,94214
2019-05-19T02:01:19.606Z,94221
2019-05-19T02:02:29.168Z,94223
2019-05-19T02:03:38.666Z,94221
2019-05-19T02:04:48.185Z,94227
2019-05-19T02:05:57.722Z,94227
2019-05-19T02:07:07.252Z,94224
2019-05-19T02:08:16.785Z,94225
2019-05-19T02:09:26.301Z,94231
2019-05-19T02:10:35.832Z,94227
2019-05-19T02:11:45.366Z,94224
2019-05-19T02:12:54.922Z,94226
2019-05-19T02:14:04.449Z,94228
2019-05-19T02:15:13.965Z,94226
2019-05-19T02:16:23.504Z,94226
2019-05-19T02:17:33.031Z,94226
2019-05-19T02:18:42.605Z,94227
2019-05-19T02:19:52.138Z,94226
2019-05-19T02:21:01.704Z,94228
2019-05-19T02:22:11.217Z,94225
2019-05-19T02:23:20.779Z,94225
2019-05-19T02:24:30.285Z,94228
2019-05-19T02:25:39.826Z,94227
2019-05-19T02:26:49.335Z,94230
2019-05-19T02:27:58.874Z,94236
2019-05-19T02:29:08.392Z,94234
2019-05-19T02:30:17.934Z,94236
2019-05-19T02:31:27.481Z,94234
2019-05-19T02:32:37.005Z,94238
2019-05-19T02:33:46.564Z,94239
2019-05-19T02:34:56.071Z,94238
2019-05-19T02:36:05.583Z,94237
2019-05-19T02:37:15.150Z,94239
2019-05-19T02:38:24.688Z,94244
2019-05-19T02:39:34.216Z,94246
2019-05-19T02:40:43.721Z,94245
2019-05-19T02:41:53.231Z,94244
2019-05-19T02:43:02.798Z,94243
2019-05-19T02:44:12.305Z,94248
2019-05-19T02:45:21.829Z,94243
2019-05-19T02:46:31.414Z,94247
2019-05-19T02:47:40.932Z,94243
2019-05-19T02:48:50.456Z,94248
2019-05-19T02:49:59.976Z,94243
2019-05-19T02:51:09.511Z,94241
2019-05-19T02:52:19.039Z,94245
2019-05-19T02:53:28.572Z,94238
2019-05-19T02:54:38.102Z,94239
2019-05-19T02:55:47.619Z,94243
2019-05-19T02:56:57.134Z,94241
2019-05-19T02:58:06.674Z,94244
2019-05-19T02:59:16.265Z,94241
2019-05-19T03:00:25.777Z,94246
2019-05-19T03:01:36.284Z,94246
2019-05-19T03:02:45.812Z,94248
2019-05-19T03:03:55.443Z,94242
2019-05-19T03:05:04.975Z,94242
2019-05-19T03:06:14.527Z,94245
2019-05-19T03:07:24.061Z,94244
2019-05-19T03:08:33.624Z,94248
2019-05-19T03:09:43.159Z,94246
2019-05-19T03:10:52.673Z,94247
2019-05-19T03:12:02.197Z,94249
2019-05-19T03:13:11.786Z,94246
2019-05-19T03:14:21.321Z,94247
2019-05-19T03:15:30.838Z,94246
2019-05-19T03:16:40.340Z,94245
2019-05-19T03:17:49.875Z,94250
2019-05-19T03:18:59.412Z,94252
2019-05-19T03:20:08.950Z,94250
2019-05-19T03:21:18.452Z,94253
2019-05-19T03:22:27.952Z,94252
2019-05-19T03:23:37.499Z,94253
2019-05-19T03:24:47.038Z,94249
2019-05-19T03:25:56.543Z,94252
2019-05-19T03:27:06.069Z,94254
2019-05-19T03:28:15.595Z,94258
2019-05-19T03:29:25.157Z,94253
2019-05-19T03:30:34.707Z,94254
2019-05-19T03:31:44.214Z,94255
2019-05-19T03:32:53.724Z,94258
2019-05-19T03:34:03.264Z,94251
2019-05-19T03:35:12.824Z,94256
2019-05-19T03:36:22.372Z,94252
2019-05-19T03:37:31.888Z,94249
2019-05-19T03:38:48.527Z,94254
2019-05-19T03:39:58.054Z,94263
2019-05-19T03:41:07.566Z,94260
2019-05-19T03:42:17.088Z,94263
2019-05-19T03:43:26.660Z,94262
2019-05-19T03:44:36.215Z,94263
2019-05-19T03:45:45.738Z,94259
2019-05-19T03:46:55.277Z,94266
2019-05-19T03:48:04.829Z,94266
2019-05-19T03:49:14.361Z,94264
2019-05-19T03:50:23.875Z,94265
2019-05-19T03:51:33.379Z,94260
2019-05-19T03:52:42.975Z,94261
2019-05-19T03:53:52.433Z,94259
2019-05-19T03:55:02.013Z,94259
2019-05-19T03:56:11.528Z,94258
2019-05-19T03:57:21.067Z,94260
2019-05-19T03:58:30.563Z,94267
2019-05-19T03:59:40.131Z,94264
2019-05-19T04:00:49.665Z,94267
2019-05-19T04:01:59.209Z,94263
2019-05-19T04:03:08.728Z,94266
2019-05-19T04:04:18.288Z,94262
2019-05-19T04:05:27.823Z,94267
2019-05-19T04:06:37.341Z,94265
2019-05-19T04:07:46.893Z,94268
2019-05-19T04:08:56.423Z,94266
2019-05-19T04:10:06.014Z,94264
2019-05-19T04:11:15.541Z,94264
2019-05-19T04:12:25.084Z,94263
2019-05-19T04:13:34.636Z,94264
2019-05-19T04:14:44.174Z,94267
2019-05-19T04:15:53.723Z,94266
2019-05-19T04:17:03.267Z,94268
2019-05-19T04:18:12.779Z,94272
2019-05-19T04:19:22.387Z,94268
2019-05-19T04:20:31.913Z,94269
2019-05-19T04:21:48.544Z,94264
2019-05-19T04:22:51.971Z,94265
2019-05-19T04:24:01.470Z,94274
2019-05-19T04:25:11.011Z,94271
2019-05-19T04:26:20.543Z,94274
2019-05-19T04:27:30.094Z,94278
2019-05-19T04:28:39.635Z,94282
2019-05-19T04:29:49.198Z,94282
2019-05-19T04:30:58.730Z,94282
2019-05-19T04:32:08.233Z,94284
2019-05-19T04:33:17.747Z,94285
2019-05-19T04:34:27.303Z,94283
2019-05-19T04:35:36.839Z,94282
2019-05-19T04:36:46.362Z,94292
2019-05-19T04:37:55.869Z,94290
2019-05-19T04:39:05.399Z,94292
2019-05-19T04:40:14.943Z,94291
2019-05-19T04:41:24.475Z,94289
2019-05-19T04:42:34.001Z,94286
2019-05-19T04:43:43.533Z,94288
2019-05-19T04:44:53.066Z,94296
2019-05-19T04:46:02.596Z,94292
2019-05-19T04:47:12.146Z,94288
2019-05-19T04:48:21.675Z,94290
2019-05-19T04:49:31.293Z,94291
2019-05-19T04:50:40.803Z,94293
2019-05-19T04:52:05.386Z,94289
2019-05-19T04:53:00.806Z,94299
2019-05-19T04:54:10.362Z,94292
2019-05-19T04:55:19.907Z,94294
2019-05-19T04:56:29.463Z,94296
2019-05-19T04:57:38.978Z,94296
2019-05-19T04:58:48.545Z,94296
2019-05-19T04:59:58.085Z,94301
2019-05-19T05:01:07.613Z,94294
2019-05-19T05:02:17.120Z,94301
2019-05-19T05:03:26.652Z,94296
2019-05-19T05:04:36.159Z,94302
2019-05-19T05:05:45.737Z,94297
2019-05-19T05:06:55.241Z,94294
2019-05-19T05:08:04.796Z,94294
2019-05-19T05:09:15.300Z,94293
2019-05-19T05:10:24.855Z,94294
2019-05-19T05:11:34.409Z,94296
2019-05-19T05:12:43.908Z,94292
2019-05-19T05:13:53.444Z,94289
2019-05-19T05:15:02.992Z,94295
2019-05-19T05:16:12.534Z,94293
2019-05-19T05:17:22.065Z,94291
2019-05-19T05:18:32.643Z,94296
2019-05-19T05:19:42.138Z,94299
2019-05-19T05:20:51.722Z,94299
2019-05-19T05:22:01.283Z,94295
2019-05-19T05:23:11.817Z,94298
2019-05-19T05:24:21.343Z,94302
2019-05-19T05:25:31.904Z,94298
2019-05-19T05:26:41.441Z,94299
2019-05-19T05:27:50.969Z,94302
2019-05-19T05:29:00.496Z,94299
2019-05-19T05:30:10.030Z,94301
2019-05-19T05:31:19.618Z,94303
2019-05-19T05:32:29.150Z,94300
2019-05-19T05:33:38.717Z,94304
2019-05-19T05:34:48.247Z,94307
2019-05-19T05:35:57.817Z,94311
2019-05-19T05:37:08.336Z,94313
2019-05-19T05:38:17.853Z,94310
2019-05-19T05:39:27.379Z,94307
2019-05-19T05:40:36.924Z,94301
2019-05-19T05:41:46.468Z,94302
2019-05-19T05:42:55.988Z,94297
2019-05-19T05:44:05.509Z,94299
2019-05-19T05:45:15.056Z,94301
2019-05-19T05:46:25.594Z,94302
2019-05-19T05:47:35.128Z,94295
2019-05-19T05:48:44.658Z,94296
2019-05-19T05:49:54.175Z,94297
2019-05-19T05:51:03.774Z,94301
2019-05-19T05:52:13.312Z,94295
2019-05-19T05:53:22.834Z,94301
2019-05-19T05:54:32.367Z,94298
2019-05-19T05:55:41.913Z,94296
2019-05-19T05:56:51.433Z,94296
2019-05-19T05:58:00.973Z,94298
2019-05-19T05:59:10.512Z,94299
2019-05-19T06:00:20.111Z,94299
2019-05-19T06:01:29.623Z,94294
2019-05-19T06:02:39.165Z,94297
2019-05-19T06:03:48.671Z,94298
2019-05-19T06:04:58.192Z,94295
2019-05-19T06:06:07.744Z,94295
2019-05-19T06:07:18.277Z,94296
2019-05-19T06:08:27.804Z,94296
2019-05-19T06:09:37.336Z,94298
2019-05-19T06:10:46.933Z,94296
2019-05-19T06:11:56.459Z,94299
2019-05-19T06:13:06.002Z,94297
2019-05-19T06:14:15.543Z,94286
2019-05-19T06:15:25.087Z,94288
2019-05-19T06:16:34.658Z,94293
2019-05-19T06:17:44.190Z,94294
2019-05-19T06:18:56.615Z,94297
2019-05-19T06:20:03.656Z,94297
2019-05-19T06:21:12.860Z,94297
2019-05-19T06:22:22.380Z,94298
2019-05-19T06:23:31.904Z,94294
2019-05-19T06:24:41.430Z,94297
2019-05-19T06:25:50.983Z,94302
2019-05-19T06:27:00.511Z,94297
2019-05-19T06:28:10.034Z,94307
2019-05-19T06:29:19.568Z,94296
2019-05-19T06:30:29.148Z,94301
2019-05-19T06:31:38.826Z,94295
2019-05-19T06:32:48.302Z,94297
2019-05-19T06:33:57.865Z,94303
2019-05-19T06:35:07.572Z,94298
2019-05-19T06:36:17.113Z,94297
2019-05-19T06:37:26.629Z,94294
2019-05-19T06:38:36.196Z,94300
2019-05-19T06:39:45.718Z,94295
2019-05-19T06:40:55.296Z,94301
2019-05-19T06:42:04.817Z,94297
2019-05-19T06:43:14.358Z,94293
2019-05-19T06:44:23.889Z,94301
2019-05-19T06:45:33.433Z,94298
2019-05-19T06:46:42.994Z,94302
2019-05-19T06:47:52.537Z,94302
2019-05-19T06:49:02.077Z,94304
2019-05-19T06:50:11.627Z,94300
2019-05-19T06:51:21.198Z,94311
2019-05-19T06:52:30.797Z,94304
2019-05-19T06:53:40.589Z,94301
2019-05-19T06:54:50.144Z,94300
2019-05-19T06:55:59.733Z,94297
2019-05-19T06:57:09.262Z,94301
2019-05-19T06:58:18.785Z,94304
2019-05-19T06:59:28.295Z,94297
2019-05-19T07:00:37.837Z,94301
2019-05-19T07:01:47.401Z,94303
2019-05-19T07:02:56.983Z,94293
2019-05-19T07:04:06.532Z,94288
2019-05-19T07:05:16.076Z,94286
2019-05-19T07:06:25.634Z,94283
2019-05-19T07:07:36.206Z,94285
2019-05-19T07:08:45.717Z,94284
2019-05-19T07:09:58.178Z,94290
2019-05-19T07:11:04.858Z,94282
2019-05-19T07:12:14.402Z,94287
2019-05-19T07:13:23.957Z,94282
2019-05-19T07:14:33.510Z,94285
2019-05-19T07:15:43.087Z,94282
2019-05-19T07:16:52.652Z,94282
2019-05-19T07:18:02.201Z,94285
2019-05-19T07:19:11.732Z,94289
2019-05-19T07:20:21.296Z,94284
2019-05-19T07:21:30.847Z,94275
2019-05-19T07:22:40.374Z,94285
2019-05-19T07:23:49.919Z,94280
2019-05-19T07:24:59.451Z,94287
2019-05-19T07:26:09.048Z,94282
2019-05-19T07:27:18.596Z,94280
2019-05-19T07:28:28.155Z,94286
2019-05-19T07:29:37.708Z,94280
2019-05-19T07:30:47.227Z,94292
2019-05-19T07:31:56.770Z,94289
2019-05-19T07:33:06.308Z,94285
2019-05-19T07:34:15.839Z,94285
2019-05-19T07:35:25.374Z,94282
2019-05-19T07:36:34.935Z,94284
2019-05-19T07:37:44.489Z,94280
2019-05-19T07:38:54.017Z,94286
2019-05-19T07:40:03.564Z,94282
2019-05-19T07:41:13.121Z,94286
2019-05-19T07:42:22.657Z,94284
2019-05-19T07:43:32.191Z,94287
2019-05-19T07:44:44.665Z,94284
2019-05-19T07:45:51.221Z,94289
2019-05-19T07:47:00.774Z,94288
2019-05-19T07:48:10.330Z,94291
2019-05-19T07:49:19.879Z,94294
2019-05-19T07:50:29.410Z,94289
2019-05-19T07:51:39.977Z,94292
2019-05-19T07:52:49.540Z,94285
2019-05-19T07:53:59.110Z,94285
2019-05-19T07:55:08.644Z,94290
2019-05-19T07:56:18.224Z,94296
2019-05-19T07:57:27.749Z,94290
2019-05-19T07:58:37.308Z,94292
2019-05-19T07:59:46.852Z,94293
2019-05-19T08:00:56.378Z,94293
2019-05-19T08:02:05.941Z,94291
2019-05-19T08:03:15.484Z,94294
2019-05-19T08:04:25.026Z,94290
2019-05-19T08:05:34.550Z,94294
2019-05-19T08:06:44.101Z,94292
2019-05-19T08:07:53.623Z,94297
2019-05-19T08:09:03.161Z,94301
2019-05-19T08:10:12.692Z,94302
2019-05-19T08:11:22.293Z,94305
2019-05-19T08:12:31.838Z,94303
2019-05-19T08:13:41.377Z,94307
2019-05-19T08:14:50.939Z,94302
2019-05-19T08:16:00.483Z,94305
2019-05-19T08:17:10.123Z,94309
2019-05-19T08:18:19.617Z,94307
2019-05-19T08:19:29.161Z,94312
2019-05-19T08:20:38.681Z,94317
2019-05-19T08:21:49.226Z,94315
2019-05-19T08:22:59.754Z,94312
2019-05-19T08:24:09.314Z,94317
2019-05-19T08:25:18.921Z,94316
2019-05-19T08:26:28.577Z,94314
2019-05-19T08:27:38.106Z,94313
2019-05-19T08:28:47.655Z,94310
2019-05-19T08:29:57.190Z,94313
2019-05-19T08:31:06.794Z,94309
2019-05-19T08:32:16.531Z,94310
2019-05-19T08:33:26.144Z,94306
2019-05-19T08:34:35.857Z,94308
2019-05-19T08:35:45.411Z,94304
2019-05-19T08:36:55.026Z,94302
2019-05-19T08:38:04.585Z,94301
2019-05-19T08:39:14.207Z,94305
2019-05-19T08:40:23.814Z,94303
2019-05-19T08:41:33.388Z,94297
2019-05-19T08:42:43.053Z,94306
2019-05-19T08:43:53.431Z,94303
2019-05-19T08:45:02.127Z,94299
2019-05-19T08:46:11.679Z,94296
2019-05-19T08:47:21.273Z,94296
2019-05-19T08:48:30.828Z,94299
2019-05-19T08:49:40.428Z,94300
2019-05-19T08:50:50.032Z,94295
2019-05-19T08:51:59.675Z,94299
2019-05-19T08:53:09.260Z,94303
2019-05-19T08:54:19.135Z,94302
2019-05-19T08:55:28.488Z,94304
2019-05-19T08:56:38.084Z,94301
2019-05-19T08:57:47.735Z,94303
2019-05-19T08:58:57.368Z,94300
2019-05-19T09:00:06.907Z,94304
2019-05-19T09:01:17.127Z,94307
2019-05-19T09:02:26.758Z,94308
2019-05-19T09:03:37.406Z,94300
2019-05-19T09:04:46.978Z,94308
2019-05-19T09:05:56.531Z,94307
2019-05-19T09:07:06.212Z,94307
2019-05-19T09:08:16.827Z,94305
2019-05-19T09:09:26.396Z,94304
2019-05-19T09:10:35.966Z,94303
2019-05-19T09:11:47.910Z,94297
2019-05-19T09:12:55.114Z,94300
2019-05-19T09:14:04.681Z,94298
2019-05-19T09:15:14.250Z,94295
2019-05-19T09:16:23.823Z,94292
2019-05-19T09:17:33.369Z,94285
2019-05-19T09:18:42.926Z,94284
2019-05-19T09:19:52.458Z,94288
2019-05-19T09:21:01.992Z,94284
2019-05-19T09:22:11.597Z,94286
2019-05-19T09:23:21.189Z,94292
2019-05-19T09:24:31.188Z,94281
2019-05-19T09:25:40.308Z,94282
2019-05-19T09:26:49.854Z,94279
2019-05-19T09:27:59.462Z,94288
2019-05-19T09:29:09.016Z,94285
2019-05-19T09:30:18.619Z,94284
2019-05-19T09:31:28.180Z,94281
2019-05-19T09:32:37.742Z,94283
2019-05-19T09:33:47.374Z,94278
2019-05-19T09:34:56.946Z,94281
2019-05-19T09:36:06.492Z,94279
2019-05-19T09:37:16.071Z,94281
2019-05-19T09:38:25.640Z,94280
2019-05-19T09:39:35.211Z,94281
2019-05-19T09:40:44.779Z,94276
2019-05-19T09:41:54.368Z,94276
2019-05-19T09:43:04.014Z,94269
2019-05-19T09:44:13.515Z,94271
2019-05-19T09:45:23.097Z,94267
2019-05-19T09:46:32.664Z,94267
2019-05-19T09:47:42.283Z,94267
2019-05-19T09:48:51.829Z,94263
2019-05-19T09:50:01.379Z,94267
2019-05-19T09:51:10.898Z,94262
2019-05-19T09:52:20.575Z,94262
2019-05-19T09:53:30.123Z,94258
2019-05-19T09:54:45.035Z,94257
2019-05-19T09:55:49.197Z,94252
2019-05-19T09:56:58.752Z,94253
2019-05-19T09:58:08.369Z,94254
2019-05-19T09:59:18.950Z,94253
2019-05-19T10:00:28.526Z,94250
2019-05-19T10:01:38.089Z,94248
2019-05-19T10:02:47.665Z,94242
2019-05-19T10:03:57.253Z,94246
2019-05-19T10:05:07.768Z,94247
2019-05-19T10:06:17.328Z,94246
2019-05-19T10:07:26.963Z,94248
2019-05-19T10:08:36.521Z,94247
2019-05-19T10:09:46.054Z,94250
2019-05-19T10:10:55.630Z,94253
2019-05-19T10:12:05.326Z,94252
2019-05-19T10:13:14.957Z,94253
2019-05-19T10:14:24.548Z,94248
2019-05-19T10:15:34.085Z,94248
2019-05-19T10:16:43.630Z,94248
2019-05-19T10:17:53.249Z,94246
2019-05-19T10:19:02.841Z,94239
2019-05-19T10:20:12.401Z,94243
2019-05-19T10:21:21.928Z,94244
2019-05-19T10:22:31.564Z,94241
2019-05-19T10:23:41.102Z,94241
2019-05-19T10:25:04.375Z,94236
2019-05-19T10:26:01.155Z,94234
2019-05-19T10:27:10.727Z,94234
2019-05-19T10:28:20.333Z,94235
2019-05-19T10:29:29.862Z,94231
2019-05-19T10:30:39.508Z,94237
2019-05-19T10:31:49.157Z,94237
2019-05-19T10:32:58.943Z,94234
2019-05-19T10:34:08.308Z,94232
2019-05-19T10:35:17.871Z,94236
2019-05-19T10:36:27.419Z,94227
2019-05-19T10:37:37.119Z,94229
2019-05-19T10:38:46.561Z,94233
2019-05-19T10:39:56.109Z,94229
2019-05-19T10:41:05.664Z,94227
2019-05-19T10:42:15.210Z,94228
2019-05-19T10:43:24.803Z,94227
2019-05-19T10:44:34.394Z,94226
2019-05-19T10:45:44.007Z,94227
2019-05-19T10:46:53.595Z,94229
2019-05-19T10:48:03.074Z,94227
2019-05-19T10:49:12.653Z,94228
2019-05-19T10:50:22.181Z,94225
2019-05-19T10:51:31.713Z,94221
2019-05-19T10:52:41.263Z,94224
2019-05-19T10:53:51.832Z,94222
2019-05-19T10:55:01.465Z,94221
2019-05-19T10:56:11.049Z,94218
2019-05-19T10:57:21.860Z,94219
2019-05-19T10:58:31.496Z,94224
2019-05-19T10:59:41.192Z,94221
2019-05-19T11:00:50.765Z,94219
2019-05-19T11:02:00.314Z,94220
2019-05-19T11:03:09.943Z,94218
2019-05-19T11:04:19.479Z,94217
2019-05-19T11:05:29.119Z,94210
2019-05-19T11:06:38.647Z,94212
2019-05-19T11:07:48.207Z,94213
2019-05-19T11:08:57.766Z,94211
2019-05-19T11:10:07.348Z,94207
2019-05-19T11:11:16.901Z,94206
2019-05-19T11:12:26.441Z,94205
2019-05-19T11:13:36.080Z,94206
2019-05-19T11:14:45.634Z,94207
2019-05-19T11:15:55.228Z,94206
2019-05-19T11:17:04.912Z,94206
2019-05-19T11:18:14.628Z,94205
2019-05-19T11:19:24.190Z,94199
2019-05-19T11:20:33.791Z,94200
2019-05-19T11:21:43.339Z,94200
2019-05-19T11:22:52.928Z,94199
2019-05-19T11:24:02.503Z,94199
2019-05-19T11:25:12.199Z,94195
2019-05-19T11:26:22.781Z,94198
2019-05-19T11:27:32.363Z,94195
2019-05-19T11:28:42.144Z,94198
2019-05-19T11:29:51.811Z,94194
2019-05-19T11:31:01.347Z,94196
2019-05-19T11:32:10.978Z,94195
2019-05-19T11:33:20.523Z,94199
2019-05-19T11:34:30.173Z,94191
2019-05-19T11:35:39.722Z,94191
2019-05-19T11:36:49.882Z,94186
2019-05-19T11:37:59.864Z,94188
2019-05-19T11:39:09.430Z,94185
2019-05-19T11:40:19.053Z,94178
2019-05-19T11:41:28.733Z,94176
2019-05-19T11:42:38.343Z,94175
2019-05-19T11:43:48.928Z,94178
2019-05-19T11:44:58.567Z,94179
2019-05-19T11:46:08.148Z,94182
2019-05-19T11:47:17.732Z,94173
2019-05-19T11:48:27.300Z,94180
2019-05-19T11:49:36.862Z,94179
2019-05-19T11:50:46.573Z,94175
2019-05-19T11:51:56.129Z,94182
2019-05-19T11:53:05.695Z,94179
2019-05-19T11:54:16.302Z,94179
2019-05-19T11:55:25.907Z,94180
2019-05-19T11:56:35.485Z,94177
2019-05-19T11:57:45.146Z,94176
2019-05-19T11:58:54.724Z,94178
2019-05-19T12:00:04.387Z,94181
2019-05-19T12:01:14.020Z,94180
2019-05-19T12:02:23.561Z,94175
2019-05-19T12:03:33.198Z,94180
2019-05-19T12:04:42.739Z,94175
2019-05-19T12:05:52.491Z,94185
2019-05-19T12:07:02.171Z,94177
2019-05-19T12:08:11.727Z,94179
2019-05-19T12:09:21.397Z,94176
2019-05-19T12:10:30.997Z,94177
2019-05-19T12:11:40.573Z,94174
2019-05-19T12:12:50.288Z,94179
2019-05-19T12:13:59.915Z,94178
2019-05-19T12:15:09.535Z,94180
2019-05-19T12:16:19.138Z,94179
2019-05-19T12:17:28.719Z,94189
2019-05-19T12:18:38.323Z,94179
2019-05-19T12:19:47.876Z,94179
2019-05-19T12:20:57.464Z,94176
2019-05-19T12:22:07.090Z,94180
2019-05-19T12:23:16.681Z,94170
2019-05-19T12:24:26.334Z,94172
2019-05-19T12:25:36.935Z,94177
2019-05-19T12:26:46.478Z,94171
2019-05-19T12:27:56.077Z,94174
2019-05-19T12:29:05.629Z,94175
2019-05-19T12:30:15.162Z,94174
2019-05-19T12:31:24.707Z,94173
2019-05-19T12:32:34.349Z,94169
2019-05-19T12:33:51.358Z,94171
2019-05-19T12:34:54.494Z,94174
2019-05-19T12:36:04.140Z,94174
2019-05-19T12:37:13.739Z,94171
2019-05-19T12:38:23.324Z,94168
2019-05-19T12:39:32.854Z,94166
2019-05-19T12:40:42.460Z,94168
2019-05-19T12:41:52.074Z,94169
2019-05-19T12:43:01.762Z,94175
2019-05-19T12:44:11.350Z,94174
2019-05-19T12:45:20.956Z,94172
2019-05-19T12:46:30.542Z,94167
2019-05-19T12:47:40.271Z,94172
2019-05-19T12:48:49.920Z,94172
2019-05-19T12:49:59.442Z,94171
2019-05-19T12:51:09.174Z,94167
2019-05-19T12:52:18.746Z,94170
2019-05-19T12:53:28.395Z,94169
2019-05-19T12:54:37.981Z,94163
2019-05-19T12:55:47.593Z,94158
2019-05-19T12:56:57.422Z,94158
2019-05-19T12:58:06.994Z,94157
2019-05-19T12:59:16.570Z,94156
2019-05-19T13:00:26.150Z,94155
2019-05-19T13:01:35.767Z,94156
2019-05-19T13:02:45.415Z,94154
2019-05-19T13:03:54.979Z,94154
2019-05-19T13:05:05.972Z,94160
2019-05-19T13:06:14.195Z,94161
2019-05-19T13:07:23.833Z,94155
2019-05-19T13:08:33.409Z,94154
2019-05-19T13:09:43.010Z,94151
2019-05-19T13:10:52.649Z,94147
2019-05-19T13:12:03.260Z,94150
2019-05-19T13:13:12.815Z,94151
2019-05-19T13:14:22.394Z,94147
2019-05-19T13:15:32.069Z,94147
2019-05-19T13:16:41.748Z,94145
2019-05-19T13:17:51.574Z,94147
2019-05-19T13:19:01.252Z,94141
2019-05-19T13:20:11.017Z,94146
2019-05-19T13:21:20.687Z,94141
2019-05-19T13:22:31.348Z,94142
2019-05-19T13:23:41.055Z,94145
2019-05-19T13:24:50.652Z,94143
2019-05-19T13:26:00.269Z,94144
2019-05-19T13:27:10.092Z,94140
2019-05-19T13:28:18.644Z,94143
2019-05-19T13:29:29.258Z,94136
2019-05-19T13:30:38.885Z,94139
2019-05-19T13:31:48.389Z,94145
2019-05-19T13:32:58.109Z,94138
2019-05-19T13:34:07.735Z,94136
2019-05-19T13:35:17.338Z,94136
2019-05-19T13:36:26.927Z,94140
2019-05-19T13:37:36.562Z,94139
2019-05-19T13:38:46.186Z,94136
2019-05-19T13:39:55.967Z,94133
2019-05-19T13:41:05.646Z,94130
2019-05-19T13:42:15.276Z,94130
2019-05-19T13:43:25.969Z,94127
2019-05-19T13:44:34.412Z,94125
2019-05-19T13:45:44.017Z,94129
2019-05-19T13:46:53.564Z,94129
2019-05-19T13:48:03.161Z,94125
2019-05-19T13:49:12.698Z,94128
2019-05-19T13:50:22.597Z,94131
2019-05-19T13:51:32.136Z,94127
2019-05-19T13:52:41.730Z,94123
2019-05-19T13:53:52.324Z,94116
2019-05-19T13:55:01.893Z,94120
2019-05-19T13:56:11.417Z,94120
2019-05-19T13:57:20.971Z,94119
2019-05-19T13:58:31.477Z,94117
2019-05-19T13:59:41.017Z,94112
2019-05-19T14:00:50.541Z,94109
2019-05-19T14:02:00.097Z,94099
2019-05-19T14:03:09.693Z,94104
2019-05-19T14:04:19.286Z,94107
2019-05-19T14:05:28.858Z,94102
2019-05-19T14:06:38.446Z,94100
2019-05-19T14:07:48.977Z,94103
2019-05-19T14:08:58.511Z,94100
2019-05-19T14:10:08.050Z,94109
2019-05-19T14:11:17.609Z,94108
2019-05-19T14:12:27.224Z,94102
2019-05-19T14:13:36.779Z,94102
2019-05-19T14:14:46.407Z,94105
2019-05-19T14:15:56.021Z,94107
2019-05-19T14:17:06.536Z,94115
2019-05-19T14:18:16.121Z,94111
2019-05-19T14:19:25.730Z,94115
2019-05-19T14:20:35.262Z,94107
2019-05-19T14:21:44.868Z,94112
2019-05-19T14:22:54.437Z,94115
2019-05-19T14:24:04.001Z,94112
2019-05-19T14:25:13.551Z,94111
2019-05-19T14:26:23.164Z,94097
2019-05-19T14:27:32.783Z,94093
2019-05-19T14:28:42.349Z,94099
2019-05-19T14:29:51.896Z,94104
2019-05-19T14:31:01.478Z,94099
2019-05-19T14:32:11.167Z,94096
2019-05-19T14:33:20.692Z,94086
2019-05-19T14:34:30.249Z,94096
2019-05-19T14:35:39.787Z,94099
2019-05-19T14:36:49.352Z,94099
2019-05-19T14:37:58.929Z,94101
2019-05-19T14:39:08.478Z,94101
2019-05-19T14:40:18.059Z,94097
2019-05-19T14:41:33.313Z,94098
2019-05-19T14:42:37.290Z,94088
2019-05-19T14:43:46.922Z,94078
2019-05-19T14:44:56.519Z,94077
2019-05-19T14:46:06.085Z,94074
2019-05-19T14:47:15.657Z,94080
2019-05-19T14:48:25.238Z,94078
2019-05-19T14:49:34.837Z,94083
2019-05-19T14:50:44.412Z,94071
2019-05-19T14:51:53.942Z,94070
2019-05-19T14:53:03.581Z,94073
2019-05-19T14:54:13.199Z,94079
2019-05-19T14:55:22.754Z,94077
2019-05-19T14:56:33.725Z,94080